sensor_id;sensor_type;location;lat;lon;timestamp;P1;durP1;ratioP1;P2;durP2;ratioP2
44536;SDS011;30245;51.966;6.292;2022-12-16T00:00:36;34.40;;;18.87;;
44536;SDS011;30245;51.966;6.292;2022-12-16T00:03:02;31.83;;;17.10;;
44536;SDS011;30245;51.966;6.292;2022-12-16T00:05:30;33.05;;;17.60;;
44536;SDS011;30245;51.966;6.292;2022-12-16T00:07:55;29.73;;;18.57;;
44536;SDS011;30245;51.966;6.292;2022-12-16T00:10:21;33.23;;;19.53;;
44536;SDS011;30245;51.966;6.292;2022-12-16T00:12:47;33.47;;;19.73;;
44536;SDS011;30245;51.966;6.292;2022-12-16T00:15:13;40.83;;;20.97;;
44536;SDS011;30245;51.966;6.292;2022-12-16T00:17:38;42.50;;;26.50;;
44536;SDS011;30245;51.966;6.292;2022-12-16T00:20:04;42.53;;;24.23;;
44536;SDS011;30245;51.966;6.292;2022-12-16T00:22:30;36.50;;;23.27;;
44536;SDS011;30245;51.966;6.292;2022-12-16T00:24:56;42.97;;;25.07;;
44536;SDS011;30245;51.966;6.292;2022-12-16T00:27:21;44.33;;;25.40;;
44536;SDS011;30245;51.966;6.292;2022-12-16T00:29:52;40.60;;;24.70;;
44536;SDS011;30245;51.966;6.292;2022-12-16T00:32:18;34.97;;;21.57;;
44536;SDS011;30245;51.966;6.292;2022-12-16T00:34:43;44.70;;;24.27;;
44536;SDS011;30245;51.966;6.292;2022-12-16T00:37:10;35.10;;;22.53;;
44536;SDS011;30245;51.966;6.292;2022-12-16T00:39:37;39.80;;;24.20;;
44536;SDS011;30245;51.966;6.292;2022-12-16T00:42:04;46.73;;;25.33;;
44536;SDS011;30245;51.966;6.292;2022-12-16T00:44:30;39.60;;;23.90;;
44536;SDS011;30245;51.966;6.292;2022-12-16T00:46:55;35.60;;;21.27;;
44536;SDS011;30245;51.966;6.292;2022-12-16T00:49:21;40.13;;;20.47;;
44536;SDS011;30245;51.966;6.292;2022-12-16T00:51:47;31.93;;;19.43;;
44536;SDS011;30245;51.966;6.292;2022-12-16T00:54:12;32.77;;;19.67;;
44536;SDS011;30245;51.966;6.292;2022-12-16T00:56:38;35.70;;;20.20;;
44536;SDS011;30245;51.966;6.292;2022-12-16T00:59:03;31.40;;;19.00;;
44536;SDS011;30245;51.966;6.292;2022-12-16T01:01:29;31.27;;;18.27;;
44536;SDS011;30245;51.966;6.292;2022-12-16T01:03:55;28.67;;;17.07;;
44536;SDS011;30245;51.966;6.292;2022-12-16T01:06:21;31.10;;;18.70;;
44536;SDS011;30245;51.966;6.292;2022-12-16T01:08:47;27.93;;;18.00;;
44536;SDS011;30245;51.966;6.292;2022-12-16T01:11:14;26.00;;;15.10;;
44536;SDS011;30245;51.966;6.292;2022-12-16T01:13:41;25.13;;;16.03;;
44536;SDS011;30245;51.966;6.292;2022-12-16T01:16:06;24.67;;;15.97;;
44536;SDS011;30245;51.966;6.292;2022-12-16T01:18:32;30.60;;;18.33;;
44536;SDS011;30245;51.966;6.292;2022-12-16T01:21:01;30.73;;;15.53;;
44536;SDS011;30245;51.966;6.292;2022-12-16T01:23:29;28.00;;;15.87;;
44536;SDS011;30245;51.966;6.292;2022-12-16T01:25:58;26.33;;;15.73;;
44536;SDS011;30245;51.966;6.292;2022-12-16T01:28:30;26.63;;;16.03;;
44536;SDS011;30245;51.966;6.292;2022-12-16T01:30:59;28.23;;;16.90;;
44536;SDS011;30245;51.966;6.292;2022-12-16T01:33:29;29.70;;;16.07;;
44536;SDS011;30245;51.966;6.292;2022-12-16T01:35:57;29.90;;;15.57;;
44536;SDS011;30245;51.966;6.292;2022-12-16T01:38:26;28.10;;;16.07;;
44536;SDS011;30245;51.966;6.292;2022-12-16T01:40:52;30.67;;;15.93;;
44536;SDS011;30245;51.966;6.292;2022-12-16T01:43:19;28.17;;;16.37;;
44536;SDS011;30245;51.966;6.292;2022-12-16T01:45:49;29.83;;;15.00;;
44536;SDS011;30245;51.966;6.292;2022-12-16T01:51:20;26.37;;;14.93;;
44536;SDS011;30245;51.966;6.292;2022-12-16T01:53:53;26.63;;;16.30;;
44536;SDS011;30245;51.966;6.292;2022-12-16T01:56:21;30.10;;;16.27;;
44536;SDS011;30245;51.966;6.292;2022-12-16T01:58:49;26.87;;;16.77;;
44536;SDS011;30245;51.966;6.292;2022-12-16T02:01:16;25.90;;;15.37;;
44536;SDS011;30245;51.966;6.292;2022-12-16T02:03:42;27.53;;;15.20;;
44536;SDS011;30245;51.966;6.292;2022-12-16T02:06:08;25.17;;;16.33;;
44536;SDS011;30245;51.966;6.292;2022-12-16T02:08:34;29.37;;;16.60;;
44536;SDS011;30245;51.966;6.292;2022-12-16T02:11:05;28.10;;;16.70;;
44536;SDS011;30245;51.966;6.292;2022-12-16T02:13:43;31.33;;;18.63;;
44536;SDS011;30245;51.966;6.292;2022-12-16T02:16:44;26.87;;;16.53;;
44536;SDS011;30245;51.966;6.292;2022-12-16T02:25:43;30.63;;;16.70;;
44536;SDS011;30245;51.966;6.292;2022-12-16T02:28:13;25.57;;;13.83;;
44536;SDS011;30245;51.966;6.292;2022-12-16T02:37:02;31.73;;;17.85;;
44536;SDS011;30245;51.966;6.292;2022-12-16T02:39:36;27.83;;;14.77;;
44536;SDS011;30245;51.966;6.292;2022-12-16T02:47:42;31.43;;;16.50;;
44536;SDS011;30245;51.966;6.292;2022-12-16T02:53:13;31.83;;;17.17;;
44536;SDS011;30245;51.966;6.292;2022-12-16T02:55:51;25.33;;;14.20;;
44536;SDS011;30245;51.966;6.292;2022-12-16T02:58:33;27.45;;;16.13;;
44536;SDS011;30245;51.966;6.292;2022-12-16T03:01:16;24.87;;;14.70;;
44536;SDS011;30245;51.966;6.292;2022-12-16T03:04:04;24.67;;;14.97;;
44536;SDS011;30245;51.966;6.292;2022-12-16T03:06:35;26.40;;;17.20;;
44536;SDS011;30245;51.966;6.292;2022-12-16T03:09:04;27.90;;;16.20;;
44536;SDS011;30245;51.966;6.292;2022-12-16T03:11:33;23.93;;;14.03;;
44536;SDS011;30245;51.966;6.292;2022-12-16T03:13:59;29.63;;;15.20;;
44536;SDS011;30245;51.966;6.292;2022-12-16T03:16:29;25.95;;;15.13;;
44536;SDS011;30245;51.966;6.292;2022-12-16T03:18:57;30.48;;;16.75;;
44536;SDS011;30245;51.966;6.292;2022-12-16T03:21:37;31.60;;;16.10;;
44536;SDS011;30245;51.966;6.292;2022-12-16T03:24:07;28.70;;;16.20;;
44536;SDS011;30245;51.966;6.292;2022-12-16T03:29:12;26.90;;;16.30;;
44536;SDS011;30245;51.966;6.292;2022-12-16T03:31:43;28.00;;;17.50;;
44536;SDS011;30245;51.966;6.292;2022-12-16T03:34:34;30.57;;;18.20;;
44536;SDS011;30245;51.966;6.292;2022-12-16T03:37:14;25.38;;;15.88;;
44536;SDS011;30245;51.966;6.292;2022-12-16T03:39:45;31.33;;;17.30;;
44536;SDS011;30245;51.966;6.292;2022-12-16T03:42:12;32.00;;;17.30;;
44536;SDS011;30245;51.966;6.292;2022-12-16T03:44:39;34.83;;;17.97;;
44536;SDS011;30245;51.966;6.292;2022-12-16T03:47:11;26.52;;;15.52;;
44536;SDS011;30245;51.966;6.292;2022-12-16T03:49:37;31.80;;;17.67;;
44536;SDS011;30245;51.966;6.292;2022-12-16T03:52:03;32.40;;;17.67;;
44536;SDS011;30245;51.966;6.292;2022-12-16T03:54:29;33.03;;;18.00;;
44536;SDS011;30245;51.966;6.292;2022-12-16T03:56:55;29.33;;;15.93;;
44536;SDS011;30245;51.966;6.292;2022-12-16T03:59:21;34.10;;;19.43;;
44536;SDS011;30245;51.966;6.292;2022-12-16T04:01:46;31.13;;;17.73;;
44536;SDS011;30245;51.966;6.292;2022-12-16T04:04:12;29.90;;;16.57;;
44536;SDS011;30245;51.966;6.292;2022-12-16T04:06:37;30.57;;;17.97;;
44536;SDS011;30245;51.966;6.292;2022-12-16T04:09:03;30.07;;;16.77;;
44536;SDS011;30245;51.966;6.292;2022-12-16T04:11:29;32.07;;;17.33;;
44536;SDS011;30245;51.966;6.292;2022-12-16T04:14:13;29.40;;;15.67;;
44536;SDS011;30245;51.966;6.292;2022-12-16T04:16:57;26.13;;;14.73;;
44536;SDS011;30245;51.966;6.292;2022-12-16T04:19:42;26.33;;;16.23;;
44536;SDS011;30245;51.966;6.292;2022-12-16T04:25:24;27.83;;;14.87;;
44536;SDS011;30245;51.966;6.292;2022-12-16T04:27:55;28.33;;;16.40;;
44536;SDS011;30245;51.966;6.292;2022-12-16T04:30:22;25.77;;;15.27;;
44536;SDS011;30245;51.966;6.292;2022-12-16T04:36:05;27.87;;;17.37;;
44536;SDS011;30245;51.966;6.292;2022-12-16T04:38:53;25.83;;;16.67;;
44536;SDS011;30245;51.966;6.292;2022-12-16T04:41:37;28.17;;;16.23;;
44536;SDS011;30245;51.966;6.292;2022-12-16T04:44:21;26.43;;;16.27;;
44536;SDS011;30245;51.966;6.292;2022-12-16T04:47:05;25.33;;;14.40;;
44536;SDS011;30245;51.966;6.292;2022-12-16T04:49:49;27.97;;;16.20;;
44536;SDS011;30245;51.966;6.292;2022-12-16T04:52:33;31.33;;;18.50;;
44536;SDS011;30245;51.966;6.292;2022-12-16T04:55:17;27.70;;;16.20;;
44536;SDS011;30245;51.966;6.292;2022-12-16T04:58:02;28.20;;;16.07;;
44536;SDS011;30245;51.966;6.292;2022-12-16T05:00:47;26.93;;;14.73;;
44536;SDS011;30245;51.966;6.292;2022-12-16T05:03:35;28.58;;;15.10;;
44536;SDS011;30245;51.966;6.292;2022-12-16T05:06:19;27.90;;;14.27;;
44536;SDS011;30245;51.966;6.292;2022-12-16T05:09:04;30.03;;;16.77;;
44536;SDS011;30245;51.966;6.292;2022-12-16T05:11:49;29.77;;;15.80;;
44536;SDS011;30245;51.966;6.292;2022-12-16T05:14:33;29.17;;;14.60;;
44536;SDS011;30245;51.966;6.292;2022-12-16T05:17:17;33.10;;;16.90;;
44536;SDS011;30245;51.966;6.292;2022-12-16T05:20:02;35.77;;;16.73;;
44536;SDS011;30245;51.966;6.292;2022-12-16T05:22:47;28.20;;;14.40;;
44536;SDS011;30245;51.966;6.292;2022-12-16T05:25:31;30.47;;;16.47;;
44536;SDS011;30245;51.966;6.292;2022-12-16T05:28:15;28.77;;;17.03;;
44536;SDS011;30245;51.966;6.292;2022-12-16T05:30:59;36.97;;;18.67;;
44536;SDS011;30245;51.966;6.292;2022-12-16T05:33:43;29.93;;;16.00;;
44536;SDS011;30245;51.966;6.292;2022-12-16T05:36:28;26.40;;;14.87;;
44536;SDS011;30245;51.966;6.292;2022-12-16T05:39:12;30.10;;;16.83;;
44536;SDS011;30245;51.966;6.292;2022-12-16T05:41:56;30.77;;;15.60;;
44536;SDS011;30245;51.966;6.292;2022-12-16T05:44:40;25.93;;;14.53;;
44536;SDS011;30245;51.966;6.292;2022-12-16T05:47:24;27.70;;;14.67;;
44536;SDS011;30245;51.966;6.292;2022-12-16T05:50:09;28.50;;;15.43;;
44536;SDS011;30245;51.966;6.292;2022-12-16T05:52:54;27.30;;;15.53;;
44536;SDS011;30245;51.966;6.292;2022-12-16T05:55:39;31.63;;;15.53;;
44536;SDS011;30245;51.966;6.292;2022-12-16T05:58:24;36.30;;;16.13;;
44536;SDS011;30245;51.966;6.292;2022-12-16T06:01:09;26.40;;;13.77;;
44536;SDS011;30245;51.966;6.292;2022-12-16T06:03:56;30.27;;;15.27;;
44536;SDS011;30245;51.966;6.292;2022-12-16T06:06:40;30.63;;;15.37;;
44536;SDS011;30245;51.966;6.292;2022-12-16T06:09:25;31.47;;;15.50;;
44536;SDS011;30245;51.966;6.292;2022-12-16T06:12:09;27.50;;;15.43;;
44536;SDS011;30245;51.966;6.292;2022-12-16T06:14:54;26.47;;;15.27;;
44536;SDS011;30245;51.966;6.292;2022-12-16T06:17:41;33.17;;;17.77;;
44536;SDS011;30245;51.966;6.292;2022-12-16T06:20:29;26.57;;;14.43;;
44536;SDS011;30245;51.966;6.292;2022-12-16T06:23:14;22.93;;;13.50;;
44536;SDS011;30245;51.966;6.292;2022-12-16T06:25:58;30.73;;;15.20;;
44536;SDS011;30245;51.966;6.292;2022-12-16T06:28:42;29.83;;;14.27;;
44536;SDS011;30245;51.966;6.292;2022-12-16T06:31:40;26.63;;;14.65;;
44536;SDS011;30245;51.966;6.292;2022-12-16T06:34:24;27.07;;;14.50;;
44536;SDS011;30245;51.966;6.292;2022-12-16T06:37:08;28.40;;;14.73;;
44536;SDS011;30245;51.966;6.292;2022-12-16T06:39:52;28.70;;;16.27;;
44536;SDS011;30245;51.966;6.292;2022-12-16T06:42:39;26.80;;;15.43;;
44536;SDS011;30245;51.966;6.292;2022-12-16T06:45:24;24.43;;;14.00;;
44536;SDS011;30245;51.966;6.292;2022-12-16T06:48:08;30.13;;;14.50;;
44536;SDS011;30245;51.966;6.292;2022-12-16T06:50:52;23.67;;;13.37;;
44536;SDS011;30245;51.966;6.292;2022-12-16T06:53:36;28.30;;;14.67;;
44536;SDS011;30245;51.966;6.292;2022-12-16T06:56:20;26.60;;;15.37;;
44536;SDS011;30245;51.966;6.292;2022-12-16T06:59:04;23.83;;;14.90;;
44536;SDS011;30245;51.966;6.292;2022-12-16T07:01:48;26.50;;;15.50;;
44536;SDS011;30245;51.966;6.292;2022-12-16T07:04:33;29.03;;;15.77;;
44536;SDS011;30245;51.966;6.292;2022-12-16T07:07:17;27.17;;;16.47;;
44536;SDS011;30245;51.966;6.292;2022-12-16T07:10:01;26.33;;;14.17;;
44536;SDS011;30245;51.966;6.292;2022-12-16T07:12:47;25.50;;;14.40;;
44536;SDS011;30245;51.966;6.292;2022-12-16T07:15:31;32.00;;;16.40;;
44536;SDS011;30245;51.966;6.292;2022-12-16T07:18:15;35.47;;;16.37;;
44536;SDS011;30245;51.966;6.292;2022-12-16T07:21:04;30.33;;;15.90;;
44536;SDS011;30245;51.966;6.292;2022-12-16T07:23:48;31.73;;;15.83;;
44536;SDS011;30245;51.966;6.292;2022-12-16T07:26:32;27.17;;;15.47;;
44536;SDS011;30245;51.966;6.292;2022-12-16T07:29:17;31.80;;;14.43;;
44536;SDS011;30245;51.966;6.292;2022-12-16T07:32:01;29.27;;;16.00;;
44536;SDS011;30245;51.966;6.292;2022-12-16T07:34:58;31.15;;;15.70;;
44536;SDS011;30245;51.966;6.292;2022-12-16T07:37:43;31.80;;;15.37;;
44536;SDS011;30245;51.966;6.292;2022-12-16T07:40:27;35.33;;;17.57;;
44536;SDS011;30245;51.966;6.292;2022-12-16T07:43:09;31.00;;;16.93;;
44536;SDS011;30245;51.966;6.292;2022-12-16T07:45:53;29.17;;;16.00;;
44536;SDS011;30245;51.966;6.292;2022-12-16T07:48:37;37.57;;;17.20;;
44536;SDS011;30245;51.966;6.292;2022-12-16T07:51:21;33.57;;;15.87;;
44536;SDS011;30245;51.966;6.292;2022-12-16T07:54:05;30.80;;;15.83;;
44536;SDS011;30245;51.966;6.292;2022-12-16T07:56:49;30.30;;;16.53;;
44536;SDS011;30245;51.966;6.292;2022-12-16T07:59:33;31.90;;;17.73;;
44536;SDS011;30245;51.966;6.292;2022-12-16T08:02:17;33.33;;;17.23;;
44536;SDS011;30245;51.966;6.292;2022-12-16T08:05:02;33.77;;;20.07;;
44536;SDS011;30245;51.966;6.292;2022-12-16T08:07:46;30.00;;;17.87;;
44536;SDS011;30245;51.966;6.292;2022-12-16T08:10:30;31.23;;;16.80;;
44536;SDS011;30245;51.966;6.292;2022-12-16T08:13:14;35.20;;;18.80;;
44536;SDS011;30245;51.966;6.292;2022-12-16T08:15:58;28.93;;;16.93;;
44536;SDS011;30245;51.966;6.292;2022-12-16T08:18:42;33.73;;;17.60;;
44536;SDS011;30245;51.966;6.292;2022-12-16T08:21:26;33.67;;;16.13;;
44536;SDS011;30245;51.966;6.292;2022-12-16T08:24:10;27.83;;;16.73;;
44536;SDS011;30245;51.966;6.292;2022-12-16T08:26:54;31.97;;;17.60;;
44536;SDS011;30245;51.966;6.292;2022-12-16T08:29:38;26.03;;;16.67;;
44536;SDS011;30245;51.966;6.292;2022-12-16T08:32:22;36.60;;;19.13;;
44536;SDS011;30245;51.966;6.292;2022-12-16T08:35:06;30.33;;;18.60;;
44536;SDS011;30245;51.966;6.292;2022-12-16T08:37:53;38.63;;;19.03;;
44536;SDS011;30245;51.966;6.292;2022-12-16T08:40:41;34.47;;;20.03;;
44536;SDS011;30245;51.966;6.292;2022-12-16T08:43:31;34.83;;;18.00;;
44536;SDS011;30245;51.966;6.292;2022-12-16T08:46:16;44.13;;;19.20;;
44536;SDS011;30245;51.966;6.292;2022-12-16T08:49:01;40.70;;;18.27;;
44536;SDS011;30245;51.966;6.292;2022-12-16T08:51:45;37.87;;;18.17;;
44536;SDS011;30245;51.966;6.292;2022-12-16T08:54:29;32.10;;;18.43;;
44536;SDS011;30245;51.966;6.292;2022-12-16T08:57:13;37.90;;;21.20;;
44536;SDS011;30245;51.966;6.292;2022-12-16T08:59:57;38.43;;;17.77;;
44536;SDS011;30245;51.966;6.292;2022-12-16T09:02:41;35.17;;;18.43;;
44536;SDS011;30245;51.966;6.292;2022-12-16T09:05:25;33.13;;;17.23;;
44536;SDS011;30245;51.966;6.292;2022-12-16T09:08:09;32.83;;;15.73;;
44536;SDS011;30245;51.966;6.292;2022-12-16T09:10:53;30.90;;;17.13;;
44536;SDS011;30245;51.966;6.292;2022-12-16T09:13:37;31.20;;;15.93;;
44536;SDS011;30245;51.966;6.292;2022-12-16T09:16:21;51.57;;;15.73;;
44536;SDS011;30245;51.966;6.292;2022-12-16T09:19:05;34.23;;;15.53;;
44536;SDS011;30245;51.966;6.292;2022-12-16T09:21:49;30.70;;;16.30;;
44536;SDS011;30245;51.966;6.292;2022-12-16T09:24:33;46.27;;;16.43;;
44536;SDS011;30245;51.966;6.292;2022-12-16T09:27:17;31.20;;;15.80;;
44536;SDS011;30245;51.966;6.292;2022-12-16T09:30:02;35.87;;;14.50;;
44536;SDS011;30245;51.966;6.292;2022-12-16T09:32:46;48.37;;;17.53;;
44536;SDS011;30245;51.966;6.292;2022-12-16T09:35:30;36.63;;;15.37;;
44536;SDS011;30245;51.966;6.292;2022-12-16T09:38:14;31.53;;;14.93;;
44536;SDS011;30245;51.966;6.292;2022-12-16T09:50:18;33.67;;;14.63;;
44536;SDS011;30245;51.966;6.292;2022-12-16T09:53:09;33.37;;;16.83;;
44536;SDS011;30245;51.966;6.292;2022-12-16T09:55:56;33.25;;;16.15;;
44536;SDS011;30245;51.966;6.292;2022-12-16T09:58:42;30.87;;;16.07;;
44536;SDS011;30245;51.966;6.292;2022-12-16T10:01:33;30.37;;;15.73;;
44536;SDS011;30245;51.966;6.292;2022-12-16T10:04:20;29.00;;;15.80;;
44536;SDS011;30245;51.966;6.292;2022-12-16T10:07:04;32.47;;;18.23;;
44536;SDS011;30245;51.966;6.292;2022-12-16T10:25:55;20.53;;;12.07;;
44536;SDS011;30245;51.966;6.292;2022-12-16T10:28:51;15.80;;;10.53;;
44536;SDS011;30245;51.966;6.292;2022-12-16T10:31:40;21.27;;;12.83;;
44536;SDS011;30245;51.966;6.292;2022-12-16T10:34:27;18.10;;;12.60;;
44536;SDS011;30245;51.966;6.292;2022-12-16T10:37:13;20.10;;;12.50;;
44536;SDS011;30245;51.966;6.292;2022-12-16T10:40:03;19.47;;;12.30;;
44536;SDS011;30245;51.966;6.292;2022-12-16T10:42:51;19.80;;;12.43;;
44536;SDS011;30245;51.966;6.292;2022-12-16T10:45:44;22.13;;;13.17;;
44536;SDS011;30245;51.966;6.292;2022-12-16T10:48:31;21.03;;;12.63;;
44536;SDS011;30245;51.966;6.292;2022-12-16T10:51:27;17.37;;;11.57;;
44536;SDS011;30245;51.966;6.292;2022-12-16T10:54:29;20.50;;;12.80;;
44536;SDS011;30245;51.966;6.292;2022-12-16T11:00:47;19.93;;;13.20;;
44536;SDS011;30245;51.966;6.292;2022-12-16T11:03:33;21.95;;;14.50;;
44536;SDS011;30245;51.966;6.292;2022-12-16T11:09:30;18.67;;;11.87;;
44536;SDS011;30245;51.966;6.292;2022-12-16T11:12:26;22.07;;;13.60;;
44536;SDS011;30245;51.966;6.292;2022-12-16T11:15:19;20.13;;;12.13;;
44536;SDS011;30245;51.966;6.292;2022-12-16T11:18:09;20.07;;;12.70;;
44536;SDS011;30245;51.966;6.292;2022-12-16T11:21:16;18.02;;;11.95;;
44536;SDS011;30245;51.966;6.292;2022-12-16T11:26:53;23.63;;;13.50;;
44536;SDS011;30245;51.966;6.292;2022-12-16T11:29:51;20.23;;;12.33;;
44536;SDS011;30245;51.966;6.292;2022-12-16T11:32:37;20.13;;;12.45;;
44536;SDS011;30245;51.966;6.292;2022-12-16T11:35:25;20.53;;;12.67;;
44536;SDS011;30245;51.966;6.292;2022-12-16T11:38:16;21.45;;;13.57;;
44536;SDS011;30245;51.966;6.292;2022-12-16T11:41:04;20.20;;;13.70;;
44536;SDS011;30245;51.966;6.292;2022-12-16T11:43:50;21.20;;;13.37;;
44536;SDS011;30245;51.966;6.292;2022-12-16T11:46:36;21.13;;;14.40;;
44536;SDS011;30245;51.966;6.292;2022-12-16T11:49:38;21.23;;;13.73;;
44536;SDS011;30245;51.966;6.292;2022-12-16T11:52:36;20.03;;;13.33;;
44536;SDS011;30245;51.966;6.292;2022-12-16T11:55:24;20.43;;;13.27;;
44536;SDS011;30245;51.966;6.292;2022-12-16T11:58:18;20.20;;;13.87;;
44536;SDS011;30245;51.966;6.292;2022-12-16T12:01:17;22.57;;;15.10;;
44536;SDS011;30245;51.966;6.292;2022-12-16T12:04:09;23.00;;;14.50;;
44536;SDS011;30245;51.966;6.292;2022-12-16T12:19:34;29.47;;;14.43;;
44536;SDS011;30245;51.966;6.292;2022-12-16T12:22:37;21.13;;;13.83;;
44536;SDS011;30245;51.966;6.292;2022-12-16T12:31:38;21.70;;;14.15;;
44536;SDS011;30245;51.966;6.292;2022-12-16T12:34:35;25.23;;;13.60;;
44536;SDS011;30245;51.966;6.292;2022-12-16T12:37:33;20.95;;;14.15;;
44536;SDS011;30245;51.966;6.292;2022-12-16T12:40:29;24.50;;;13.40;;
44536;SDS011;30245;51.966;6.292;2022-12-16T12:43:21;24.10;;;14.90;;
44536;SDS011;30245;51.966;6.292;2022-12-16T12:46:21;23.60;;;14.13;;
44536;SDS011;30245;51.966;6.292;2022-12-16T12:49:35;22.30;;;12.07;;
44536;SDS011;30245;51.966;6.292;2022-12-16T12:58:29;19.53;;;11.40;;
44536;SDS011;30245;51.966;6.292;2022-12-16T13:01:16;18.33;;;10.47;;
44536;SDS011;30245;51.966;6.292;2022-12-16T13:04:21;18.40;;;12.23;;
44536;SDS011;30245;51.966;6.292;2022-12-16T13:07:06;16.00;;;11.67;;
44536;SDS011;30245;51.966;6.292;2022-12-16T13:16:00;17.17;;;11.87;;
44536;SDS011;30245;51.966;6.292;2022-12-16T13:18:46;19.23;;;11.67;;
44536;SDS011;30245;51.966;6.292;2022-12-16T13:27:19;17.53;;;11.27;;
44536;SDS011;30245;51.966;6.292;2022-12-16T13:32:55;18.03;;;11.87;;
44536;SDS011;30245;51.966;6.292;2022-12-16T13:35:54;22.93;;;11.97;;
44536;SDS011;30245;51.966;6.292;2022-12-16T13:38:49;18.08;;;11.20;;
44536;SDS011;30245;51.966;6.292;2022-12-16T13:47:56;14.97;;;8.63;;
44536;SDS011;30245;51.966;6.292;2022-12-16T13:50:38;16.37;;;9.37;;
44536;SDS011;30245;51.966;6.292;2022-12-16T13:53:26;18.50;;;10.50;;
44536;SDS011;30245;51.966;6.292;2022-12-16T13:56:13;19.63;;;12.10;;
44536;SDS011;30245;51.966;6.292;2022-12-16T13:59:05;20.40;;;11.13;;
44536;SDS011;30245;51.966;6.292;2022-12-16T14:02:01;18.65;;;11.90;;
44536;SDS011;30245;51.966;6.292;2022-12-16T14:05:01;23.67;;;12.60;;
44536;SDS011;30245;51.966;6.292;2022-12-16T14:08:00;21.38;;;12.40;;
44536;SDS011;30245;51.966;6.292;2022-12-16T14:10:44;22.33;;;12.50;;
44536;SDS011;30245;51.966;6.292;2022-12-16T14:13:45;18.93;;;12.47;;
44536;SDS011;30245;51.966;6.292;2022-12-16T14:16:54;22.07;;;12.47;;
44536;SDS011;30245;51.966;6.292;2022-12-16T14:25:56;21.77;;;11.93;;
44536;SDS011;30245;51.966;6.292;2022-12-16T14:28:41;24.17;;;12.40;;
44536;SDS011;30245;51.966;6.292;2022-12-16T14:31:30;21.53;;;12.43;;
44536;SDS011;30245;51.966;6.292;2022-12-16T14:34:23;20.27;;;11.43;;
44536;SDS011;30245;51.966;6.292;2022-12-16T14:37:20;16.13;;;9.73;;
44536;SDS011;30245;51.966;6.292;2022-12-16T14:40:14;21.17;;;10.57;;
44536;SDS011;30245;51.966;6.292;2022-12-16T14:43:04;21.70;;;11.37;;
44536;SDS011;30245;51.966;6.292;2022-12-16T14:45:58;21.63;;;11.20;;
44536;SDS011;30245;51.966;6.292;2022-12-16T14:48:46;18.57;;;10.03;;
44536;SDS011;30245;51.966;6.292;2022-12-16T14:51:33;23.10;;;12.40;;
44536;SDS011;30245;51.966;6.292;2022-12-16T14:57:14;18.70;;;11.75;;
44536;SDS011;30245;51.966;6.292;2022-12-16T15:02:51;21.40;;;11.23;;
44536;SDS011;30245;51.966;6.292;2022-12-16T15:05:43;19.80;;;11.17;;
44536;SDS011;30245;51.966;6.292;2022-12-16T15:08:27;21.17;;;11.30;;
44536;SDS011;30245;51.966;6.292;2022-12-16T15:11:15;20.57;;;11.77;;
44536;SDS011;30245;51.966;6.292;2022-12-16T15:14:02;24.70;;;12.07;;
44536;SDS011;30245;51.966;6.292;2022-12-16T15:16:48;25.63;;;12.93;;
44536;SDS011;30245;51.966;6.292;2022-12-16T15:19:37;20.57;;;11.47;;
44536;SDS011;30245;51.966;6.292;2022-12-16T15:22:28;22.17;;;13.03;;
44536;SDS011;30245;51.966;6.292;2022-12-16T15:25:30;20.00;;;11.87;;
44536;SDS011;30245;51.966;6.292;2022-12-16T15:28:21;18.27;;;10.67;;
44536;SDS011;30245;51.966;6.292;2022-12-16T15:31:14;18.90;;;10.77;;
44536;SDS011;30245;51.966;6.292;2022-12-16T15:37:14;21.47;;;12.93;;
44536;SDS011;30245;51.966;6.292;2022-12-16T15:39:59;18.80;;;12.57;;
44536;SDS011;30245;51.966;6.292;2022-12-16T15:42:48;17.33;;;10.47;;
44536;SDS011;30245;51.966;6.292;2022-12-16T15:45:33;24.53;;;14.00;;
44536;SDS011;30245;51.966;6.292;2022-12-16T15:48:30;22.93;;;13.83;;
44536;SDS011;30245;51.966;6.292;2022-12-16T15:54:16;19.27;;;11.73;;
44536;SDS011;30245;51.966;6.292;2022-12-16T15:57:01;21.30;;;13.80;;
44536;SDS011;30245;51.966;6.292;2022-12-16T15:59:54;21.53;;;13.90;;
44536;SDS011;30245;51.966;6.292;2022-12-16T16:02:51;25.33;;;12.90;;
44536;SDS011;30245;51.966;6.292;2022-12-16T16:05:35;23.47;;;13.10;;
44536;SDS011;30245;51.966;6.292;2022-12-16T16:08:19;20.07;;;11.33;;
44536;SDS011;30245;51.966;6.292;2022-12-16T16:11:03;19.10;;;12.67;;
44536;SDS011;30245;51.966;6.292;2022-12-16T16:13:47;19.00;;;11.33;;
44536;SDS011;30245;51.966;6.292;2022-12-16T16:16:31;23.40;;;11.97;;
44536;SDS011;30245;51.966;6.292;2022-12-16T16:19:19;18.93;;;11.40;;
44536;SDS011;30245;51.966;6.292;2022-12-16T16:22:12;19.93;;;10.03;;
44536;SDS011;30245;51.966;6.292;2022-12-16T16:24:58;19.63;;;12.37;;
44536;SDS011;30245;51.966;6.292;2022-12-16T16:27:42;19.10;;;11.70;;
44536;SDS011;30245;51.966;6.292;2022-12-16T16:30:26;23.37;;;13.03;;
44536;SDS011;30245;51.966;6.292;2022-12-16T16:33:10;19.07;;;11.27;;
44536;SDS011;30245;51.966;6.292;2022-12-16T16:35:54;22.37;;;12.70;;
44536;SDS011;30245;51.966;6.292;2022-12-16T16:38:38;21.00;;;12.93;;
44536;SDS011;30245;51.966;6.292;2022-12-16T16:41:22;19.27;;;11.93;;
44536;SDS011;30245;51.966;6.292;2022-12-16T16:44:06;19.87;;;11.47;;
44536;SDS011;30245;51.966;6.292;2022-12-16T16:46:51;21.30;;;12.97;;
44536;SDS011;30245;51.966;6.292;2022-12-16T16:49:44;21.17;;;12.77;;
44536;SDS011;30245;51.966;6.292;2022-12-16T16:52:30;20.23;;;12.87;;
44536;SDS011;30245;51.966;6.292;2022-12-16T16:58:06;22.83;;;13.97;;
44536;SDS011;30245;51.966;6.292;2022-12-16T17:01:11;20.17;;;11.65;;
44536;SDS011;30245;51.966;6.292;2022-12-16T17:03:56;21.43;;;12.00;;
44536;SDS011;30245;51.966;6.292;2022-12-16T17:06:41;20.53;;;11.80;;
44536;SDS011;30245;51.966;6.292;2022-12-16T17:09:25;21.23;;;13.30;;
44536;SDS011;30245;51.966;6.292;2022-12-16T17:12:19;18.80;;;12.20;;
44536;SDS011;30245;51.966;6.292;2022-12-16T17:17:58;19.50;;;11.83;;
44536;SDS011;30245;51.966;6.292;2022-12-16T17:20:44;19.93;;;12.00;;
44536;SDS011;30245;51.966;6.292;2022-12-16T17:23:28;20.80;;;13.27;;
44536;SDS011;30245;51.966;6.292;2022-12-16T17:26:12;23.33;;;13.47;;
44536;SDS011;30245;51.966;6.292;2022-12-16T17:28:59;25.63;;;14.70;;
44536;SDS011;30245;51.966;6.292;2022-12-16T17:31:43;22.60;;;13.30;;
44536;SDS011;30245;51.966;6.292;2022-12-16T17:34:27;24.57;;;13.03;;
44536;SDS011;30245;51.966;6.292;2022-12-16T17:37:11;27.67;;;13.13;;
44536;SDS011;30245;51.966;6.292;2022-12-16T17:39:55;22.97;;;13.00;;
44536;SDS011;30245;51.966;6.292;2022-12-16T17:42:39;26.23;;;15.13;;
44536;SDS011;30245;51.966;6.292;2022-12-16T17:45:23;23.03;;;13.67;;
44536;SDS011;30245;51.966;6.292;2022-12-16T17:48:07;22.47;;;12.77;;
44536;SDS011;30245;51.966;6.292;2022-12-16T17:50:51;23.40;;;12.70;;
44536;SDS011;30245;51.966;6.292;2022-12-16T17:53:37;25.10;;;13.23;;
44536;SDS011;30245;51.966;6.292;2022-12-16T17:56:21;20.90;;;13.27;;
44536;SDS011;30245;51.966;6.292;2022-12-16T17:59:07;23.57;;;13.47;;
44536;SDS011;30245;51.966;6.292;2022-12-16T18:01:51;21.57;;;15.00;;
44536;SDS011;30245;51.966;6.292;2022-12-16T18:04:35;27.23;;;15.57;;
44536;SDS011;30245;51.966;6.292;2022-12-16T18:07:19;25.23;;;13.27;;